Delta Virtual Airport Information Service

Hamburg Airport

ICAO: EDDH Country: Germany
Latitude: 53.6304 Longitude: 9.98823
Latest Arrival : DLH10 (EDDF-EDDH) Latest Departure : DAC2345 (EDDH-LSGG)


WX CaptureLIVE
Data provided by noaa.gov | Fetched at 14:26:58

METAR : EDDH 151850Z 05006KT CAVOK 25/13 Q1014 NOSIG

TAF : EDDH 151700Z 1518/1624 05010KT CAVOK BECMG 1518/1520 05004KT BECMG 1605/1607 11008KT


Runway Data for EDDH
Data provided by openaviationdata.com

Runway ID Mag Var Hdg Length Elevation Surface ILS Freq ILS Id ILS Slope
5 1 48° 10639 ft 53 ft Asphalt 110.5 IHHE 3
15 1 151° 12007 ft 53 ft Asphalt 111.35 IHHS 3
23 1 228° 10639 ft 53 ft Asphalt 111.5 IHHW 3
33 1 331° 12007 ft 53 ft Asphalt 109.9 IHHN 0

Hamburg Airport, Germany
Use only for reference purposes



Not for navigational purposes.